sensor_id;sensor_type;location;lat;lon;timestamp;pressure;altitude;pressure_sealevel;temperature;humidity
15604;BME280;7902;49.042;9.092;2022-11-12T00:01:25;100706.06;;;10.11;70.92
15604;BME280;7902;49.042;9.092;2022-11-12T00:03:51;100709.44;;;10.13;71.92
15604;BME280;7902;49.042;9.092;2022-11-12T00:06:16;100706.53;;;10.21;70.39
15604;BME280;7902;49.042;9.092;2022-11-12T00:08:42;100708.09;;;10.05;71.25
15604;BME280;7902;49.042;9.092;2022-11-12T00:11:08;100706.91;;;10.12;71.04
15604;BME280;7902;49.042;9.092;2022-11-12T00:13:34;100705.31;;;10.08;71.86
15604;BME280;7902;49.042;9.092;2022-11-12T00:16:00;100696.88;;;10.01;71.75
15604;BME280;7902;49.042;9.092;2022-11-12T00:18:26;100694.78;;;10.09;70.66
15604;BME280;7902;49.042;9.092;2022-11-12T00:20:52;100696.44;;;9.92;72.21
15604;BME280;7902;49.042;9.092;2022-11-12T00:23:18;100697.09;;;9.97;71.17
15604;BME280;7902;49.042;9.092;2022-11-12T00:25:44;100682.09;;;9.80;71.78
15604;BME280;7902;49.042;9.092;2022-11-12T00:28:10;100688.66;;;9.70;72.19
15604;BME280;7902;49.042;9.092;2022-11-12T00:30:37;100685.66;;;9.59;71.81
15604;BME280;7902;49.042;9.092;2022-11-12T00:33:04;100683.34;;;9.51;71.75
15604;BME280;7902;49.042;9.092;2022-11-12T00:35:31;100694.28;;;9.61;72.29
15604;BME280;7902;49.042;9.092;2022-11-12T00:37:57;100688.28;;;9.59;71.43
15604;BME280;7902;49.042;9.092;2022-11-12T00:40:24;100687.56;;;9.55;71.57
15604;BME280;7902;49.042;9.092;2022-11-12T00:42:51;100687.47;;;9.57;71.00
15604;BME280;7902;49.042;9.092;2022-11-12T00:45:20;100689.13;;;9.59;70.30
15604;BME280;7902;49.042;9.092;2022-11-12T00:47:46;100682.19;;;9.58;70.45
15604;BME280;7902;49.042;9.092;2022-11-12T00:50:12;100681.28;;;9.59;70.09
15604;BME280;7902;49.042;9.092;2022-11-12T00:52:37;100687.38;;;9.60;70.41
15604;BME280;7902;49.042;9.092;2022-11-12T00:55:03;100693.38;;;9.62;69.81
15604;BME280;7902;49.042;9.092;2022-11-12T00:57:29;100681.72;;;9.69;69.93
15604;BME280;7902;49.042;9.092;2022-11-12T00:59:55;100691.75;;;9.59;69.18
15604;BME280;7902;49.042;9.092;2022-11-12T01:02:21;100688.47;;;9.54;69.52
15604;BME280;7902;49.042;9.092;2022-11-12T01:04:47;100685.66;;;9.59;68.79
15604;BME280;7902;49.042;9.092;2022-11-12T01:07:13;100686.31;;;9.44;68.93
15604;BME280;7902;49.042;9.092;2022-11-12T01:09:41;100687.56;;;9.35;69.11
15604;BME280;7902;49.042;9.092;2022-11-12T01:12:07;100685.31;;;9.26;69.07
15604;BME280;7902;49.042;9.092;2022-11-12T01:14:33;100676.47;;;9.29;68.86
15604;BME280;7902;49.042;9.092;2022-11-12T01:16:59;100679.75;;;9.34;68.42
15604;BME280;7902;49.042;9.092;2022-11-12T01:19:24;100685.78;;;9.36;68.05
15604;BME280;7902;49.042;9.092;2022-11-12T01:21:50;100687.22;;;9.22;69.09
15604;BME280;7902;49.042;9.092;2022-11-12T01:24:16;100682.47;;;9.32;68.64
15604;BME280;7902;49.042;9.092;2022-11-12T01:26:42;100691.16;;;9.33;68.92
15604;BME280;7902;49.042;9.092;2022-11-12T01:29:08;100688.47;;;9.34;68.33
15604;BME280;7902;49.042;9.092;2022-11-12T01:31:36;100687.97;;;9.46;67.24
15604;BME280;7902;49.042;9.092;2022-11-12T01:34:05;100684.59;;;9.43;67.71
15604;BME280;7902;49.042;9.092;2022-11-12T01:36:38;100685.50;;;9.42;67.15
15604;BME280;7902;49.042;9.092;2022-11-12T01:39:06;100684.69;;;9.41;67.32
15604;BME280;7902;49.042;9.092;2022-11-12T01:41:34;100670.25;;;9.31;67.75
15604;BME280;7902;49.042;9.092;2022-11-12T01:44:15;100672.41;;;9.21;67.73
15604;BME280;7902;49.042;9.092;2022-11-12T01:47:24;100664.13;;;9.10;67.89
15604;BME280;7902;49.042;9.092;2022-11-12T01:49:46;100661.56;;;8.89;68.76
15604;BME280;7902;49.042;9.092;2022-11-12T01:54:44;100660.75;;;8.87;68.58
15604;BME280;7902;49.042;9.092;2022-11-12T01:57:18;100652.41;;;8.99;67.75
15604;BME280;7902;49.042;9.092;2022-11-12T01:59:47;100656.31;;;8.89;68.22
15604;BME280;7902;49.042;9.092;2022-11-12T02:02:14;100652.59;;;8.94;67.66
15604;BME280;7902;49.042;9.092;2022-11-12T02:04:41;100646.69;;;8.89;68.09
15604;BME280;7902;49.042;9.092;2022-11-12T02:07:07;100648.44;;;8.67;68.17
15604;BME280;7902;49.042;9.092;2022-11-12T02:09:35;100645.38;;;8.79;67.96
15604;BME280;7902;49.042;9.092;2022-11-12T02:12:01;100645.13;;;8.85;67.74
15604;BME280;7902;49.042;9.092;2022-11-12T02:14:28;100644.13;;;8.88;67.57
15604;BME280;7902;49.042;9.092;2022-11-12T02:16:54;100632.94;;;8.84;67.88
15604;BME280;7902;49.042;9.092;2022-11-12T02:19:20;100638.03;;;8.87;67.11
15604;BME280;7902;49.042;9.092;2022-11-12T02:21:46;100634.50;;;8.88;67.50
15604;BME280;7902;49.042;9.092;2022-11-12T02:26:50;100641.47;;;8.89;67.20
15604;BME280;7902;49.042;9.092;2022-11-12T02:29:16;100642.38;;;8.88;67.85
15604;BME280;7902;49.042;9.092;2022-11-12T02:31:42;100632.66;;;8.90;67.52
15604;BME280;7902;49.042;9.092;2022-11-12T02:34:08;100629.94;;;8.93;67.42
15604;BME280;7902;49.042;9.092;2022-11-12T02:36:34;100635.03;;;8.96;67.61
15604;BME280;7902;49.042;9.092;2022-11-12T02:39:00;100636.06;;;8.92;67.34
15604;BME280;7902;49.042;9.092;2022-11-12T02:41:26;100636.06;;;8.92;67.53
15604;BME280;7902;49.042;9.092;2022-11-12T02:43:52;100636.28;;;8.88;67.36
15604;BME280;7902;49.042;9.092;2022-11-12T02:46:18;100639.59;;;8.91;67.24
15604;BME280;7902;49.042;9.092;2022-11-12T02:48:44;100636.41;;;8.85;67.15
15604;BME280;7902;49.042;9.092;2022-11-12T02:51:10;100632.78;;;8.87;67.37
15604;BME280;7902;49.042;9.092;2022-11-12T02:53:36;100637.25;;;8.85;66.92
15604;BME280;7902;49.042;9.092;2022-11-12T02:56:02;100636.84;;;8.74;67.33
15604;BME280;7902;49.042;9.092;2022-11-12T02:58:28;100640.56;;;8.47;67.29
15604;BME280;7902;49.042;9.092;2022-11-12T03:00:55;100636.09;;;8.49;67.07
15604;BME280;7902;49.042;9.092;2022-11-12T03:03:21;100646.03;;;7.94;68.09
15604;BME280;7902;49.042;9.092;2022-11-12T03:05:55;100646.38;;;8.08;68.13
15604;BME280;7902;49.042;9.092;2022-11-12T03:08:22;100661.44;;;8.02;67.78
15604;BME280;7902;49.042;9.092;2022-11-12T03:10:48;100658.22;;;8.18;67.43
15604;BME280;7902;49.042;9.092;2022-11-12T03:13:14;100652.16;;;8.16;67.53
15604;BME280;7902;49.042;9.092;2022-11-12T03:15:40;100655.59;;;7.95;68.18
15604;BME280;7902;49.042;9.092;2022-11-12T03:18:06;100650.41;;;7.70;68.93
15604;BME280;7902;49.042;9.092;2022-11-12T03:20:32;100652.69;;;7.55;69.90
15604;BME280;7902;49.042;9.092;2022-11-12T03:23:05;100649.75;;;7.64;69.49
15604;BME280;7902;49.042;9.092;2022-11-12T03:25:31;100659.88;;;7.73;69.33
15604;BME280;7902;49.042;9.092;2022-11-12T03:28:09;100664.00;;;7.80;69.12
15604;BME280;7902;49.042;9.092;2022-11-12T03:30:37;100660.97;;;7.67;69.19
15604;BME280;7902;49.042;9.092;2022-11-12T03:33:04;100657.75;;;7.84;68.03
15604;BME280;7902;49.042;9.092;2022-11-12T03:35:30;100654.44;;;7.79;69.26
15604;BME280;7902;49.042;9.092;2022-11-12T03:37:56;100653.97;;;7.91;68.50
15604;BME280;7902;49.042;9.092;2022-11-12T03:40:23;100660.31;;;7.85;68.86
15604;BME280;7902;49.042;9.092;2022-11-12T03:42:50;100655.50;;;7.73;69.24
15604;BME280;7902;49.042;9.092;2022-11-12T03:45:17;100645.69;;;7.80;69.12
15604;BME280;7902;49.042;9.092;2022-11-12T03:47:45;100645.69;;;7.80;68.74
15604;BME280;7902;49.042;9.092;2022-11-12T03:50:13;100645.66;;;7.57;69.74
15604;BME280;7902;49.042;9.092;2022-11-12T03:52:43;100639.72;;;7.76;68.80
15604;BME280;7902;49.042;9.092;2022-11-12T03:55:09;100638.91;;;7.74;68.54
15604;BME280;7902;49.042;9.092;2022-11-12T03:57:35;100636.09;;;7.80;68.72
15604;BME280;7902;49.042;9.092;2022-11-12T04:00:04;100640.25;;;7.86;68.55
15604;BME280;7902;49.042;9.092;2022-11-12T04:02:30;100638.53;;;7.85;68.73
15604;BME280;7902;49.042;9.092;2022-11-12T04:04:56;100653.31;;;7.86;68.48
15604;BME280;7902;49.042;9.092;2022-11-12T04:07:40;100650.47;;;7.92;68.33
15604;BME280;7902;49.042;9.092;2022-11-12T04:10:25;100652.47;;;7.85;68.06
15604;BME280;7902;49.042;9.092;2022-11-12T04:12:51;100653.97;;;7.91;68.06
15604;BME280;7902;49.042;9.092;2022-11-12T04:15:35;100657.50;;;7.67;68.77
15604;BME280;7902;49.042;9.092;2022-11-12T04:18:01;100649.44;;;7.73;68.97
15604;BME280;7902;49.042;9.092;2022-11-12T04:20:47;100651.63;;;7.85;68.14
15604;BME280;7902;49.042;9.092;2022-11-12T04:23:32;100647.91;;;7.42;68.53
15604;BME280;7902;49.042;9.092;2022-11-12T04:25:57;100641.72;;;7.45;69.20
15604;BME280;7902;49.042;9.092;2022-11-12T04:28:42;100641.38;;;7.54;68.89
15604;BME280;7902;49.042;9.092;2022-11-12T04:31:26;100647.75;;;7.72;68.16
15604;BME280;7902;49.042;9.092;2022-11-12T04:33:52;100645.81;;;7.77;68.30
15604;BME280;7902;49.042;9.092;2022-11-12T04:36:18;100653.31;;;7.63;68.23
15604;BME280;7902;49.042;9.092;2022-11-12T04:38:44;100659.03;;;7.72;68.43
15604;BME280;7902;49.042;9.092;2022-11-12T04:41:10;100650.34;;;7.72;68.19
15604;BME280;7902;49.042;9.092;2022-11-12T04:43:54;100650.44;;;7.69;68.41
15604;BME280;7902;49.042;9.092;2022-11-12T04:46:39;100646.44;;;7.59;68.53
15604;BME280;7902;49.042;9.092;2022-11-12T04:49:05;100651.44;;;7.66;68.20
15604;BME280;7902;49.042;9.092;2022-11-12T04:51:31;100648.75;;;7.68;68.73
15604;BME280;7902;49.042;9.092;2022-11-12T04:54:15;100640.47;;;7.80;67.85
15604;BME280;7902;49.042;9.092;2022-11-12T04:56:41;100643.13;;;7.78;68.03
15604;BME280;7902;49.042;9.092;2022-11-12T04:59:07;100646.56;;;7.56;68.47
15604;BME280;7902;49.042;9.092;2022-11-12T05:01:33;100651.34;;;7.68;68.13
15604;BME280;7902;49.042;9.092;2022-11-12T05:03:58;100653.97;;;7.68;68.43
15604;BME280;7902;49.042;9.092;2022-11-12T05:06:24;100656.84;;;7.85;68.02
15604;BME280;7902;49.042;9.092;2022-11-12T05:09:09;100660.19;;;7.88;67.98
15604;BME280;7902;49.042;9.092;2022-11-12T05:11:35;100655.81;;;7.89;67.62
15604;BME280;7902;49.042;9.092;2022-11-12T05:14:00;100658.44;;;7.89;67.90
15604;BME280;7902;49.042;9.092;2022-11-12T05:16:26;100666.91;;;7.96;67.58
15604;BME280;7902;49.042;9.092;2022-11-12T05:18:52;100669.06;;;7.84;68.13
15604;BME280;7902;49.042;9.092;2022-11-12T05:21:18;100661.09;;;7.87;68.14
15604;BME280;7902;49.042;9.092;2022-11-12T05:24:03;100662.75;;;7.67;69.23
15604;BME280;7902;49.042;9.092;2022-11-12T05:26:28;100661.34;;;7.81;68.33
15604;BME280;7902;49.042;9.092;2022-11-12T05:28:55;100657.41;;;7.93;67.77
15604;BME280;7902;49.042;9.092;2022-11-12T05:31:20;100653.97;;;7.91;68.17
15604;BME280;7902;49.042;9.092;2022-11-12T05:33:46;100663.31;;;7.98;67.75
15604;BME280;7902;49.042;9.092;2022-11-12T05:36:12;100654.56;;;7.99;67.59
15604;BME280;7902;49.042;9.092;2022-11-12T05:38:38;100658.59;;;7.84;68.01
15604;BME280;7902;49.042;9.092;2022-11-12T05:41:04;100654.63;;;7.98;67.68
15604;BME280;7902;49.042;9.092;2022-11-12T05:43:30;100664.13;;;8.00;67.76
15604;BME280;7902;49.042;9.092;2022-11-12T05:45:56;100668.44;;;8.01;67.54
15604;BME280;7902;49.042;9.092;2022-11-12T05:48:22;100659.06;;;7.96;67.99
15604;BME280;7902;49.042;9.092;2022-11-12T05:50:52;100660.06;;;7.91;68.03
15604;BME280;7902;49.042;9.092;2022-11-12T05:53:18;100664.00;;;7.80;68.66
15604;BME280;7902;49.042;9.092;2022-11-12T05:55:44;100659.97;;;7.94;67.86
15604;BME280;7902;49.042;9.092;2022-11-12T05:58:09;100664.91;;;7.79;68.53
15604;BME280;7902;49.042;9.092;2022-11-12T06:00:35;100660.34;;;7.84;68.20
15604;BME280;7902;49.042;9.092;2022-11-12T06:03:07;100662.41;;;7.76;68.34
15604;BME280;7902;49.042;9.092;2022-11-12T06:05:34;100669.28;;;7.78;68.43
15604;BME280;7902;49.042;9.092;2022-11-12T06:08:01;100677.84;;;7.82;68.36
15604;BME280;7902;49.042;9.092;2022-11-12T06:10:26;100672.41;;;7.88;68.45
15604;BME280;7902;49.042;9.092;2022-11-12T06:12:52;100678.13;;;7.74;68.34
15604;BME280;7902;49.042;9.092;2022-11-12T06:15:18;100682.09;;;7.86;68.17
15604;BME280;7902;49.042;9.092;2022-11-12T06:17:44;100683.91;;;7.84;68.12
15604;BME280;7902;49.042;9.092;2022-11-12T06:20:11;100685.78;;;7.80;68.28
15604;BME280;7902;49.042;9.092;2022-11-12T06:22:37;100687.66;;;7.77;67.76
15604;BME280;7902;49.042;9.092;2022-11-12T06:25:03;100685.47;;;7.65;68.52
15604;BME280;7902;49.042;9.092;2022-11-12T06:27:30;100690.53;;;7.69;68.21
15604;BME280;7902;49.042;9.092;2022-11-12T06:29:56;100682.56;;;7.72;68.01
15604;BME280;7902;49.042;9.092;2022-11-12T06:32:23;100689.50;;;7.73;67.97
15604;BME280;7902;49.042;9.092;2022-11-12T06:34:49;100691.50;;;7.67;68.12
15604;BME280;7902;49.042;9.092;2022-11-12T06:37:17;100691.22;;;7.74;67.76
15604;BME280;7902;49.042;9.092;2022-11-12T06:39:43;100690.66;;;7.66;68.22
15604;BME280;7902;49.042;9.092;2022-11-12T06:42:09;100693.94;;;7.71;67.90
15604;BME280;7902;49.042;9.092;2022-11-12T06:44:35;100684.41;;;7.70;67.92
15604;BME280;7902;49.042;9.092;2022-11-12T06:47:01;100680.94;;;7.70;68.02
15604;BME280;7902;49.042;9.092;2022-11-12T06:49:27;100681.81;;;7.69;67.84
15604;BME280;7902;49.042;9.092;2022-11-12T06:51:53;100684.69;;;7.63;68.42
15604;BME280;7902;49.042;9.092;2022-11-12T06:54:19;100694.81;;;7.72;67.97
15604;BME280;7902;49.042;9.092;2022-11-12T06:56:44;100683.41;;;7.73;68.14
15604;BME280;7902;49.042;9.092;2022-11-12T06:59:10;100687.75;;;7.74;68.12
15604;BME280;7902;49.042;9.092;2022-11-12T07:01:36;100691.94;;;7.78;67.94
15604;BME280;7902;49.042;9.092;2022-11-12T07:04:02;100689.47;;;7.75;68.13
15604;BME280;7902;49.042;9.092;2022-11-12T07:06:28;100685.13;;;7.74;68.32
15604;BME280;7902;49.042;9.092;2022-11-12T07:08:54;100679.81;;;7.77;68.12
15604;BME280;7902;49.042;9.092;2022-11-12T07:11:20;100675.25;;;7.82;68.52
15604;BME280;7902;49.042;9.092;2022-11-12T07:13:46;100670.81;;;7.84;68.01
15604;BME280;7902;49.042;9.092;2022-11-12T07:16:13;100673.31;;;7.87;67.92
15604;BME280;7902;49.042;9.092;2022-11-12T07:18:44;100678.59;;;7.62;69.48
15604;BME280;7902;49.042;9.092;2022-11-12T07:21:16;100681.06;;;7.40;70.25
15604;BME280;7902;49.042;9.092;2022-11-12T07:23:44;100684.59;;;7.64;69.55
15604;BME280;7902;49.042;9.092;2022-11-12T07:26:18;100676.22;;;7.55;69.49
15604;BME280;7902;49.042;9.092;2022-11-12T07:28:45;100679.00;;;7.75;69.14
15604;BME280;7902;49.042;9.092;2022-11-12T07:31:13;100676.91;;;7.84;68.82
15604;BME280;7902;49.042;9.092;2022-11-12T07:33:39;100671.97;;;7.77;69.33
15604;BME280;7902;49.042;9.092;2022-11-12T07:36:07;100671.38;;;7.92;68.29
15604;BME280;7902;49.042;9.092;2022-11-12T07:38:35;100685.38;;;7.91;68.78
15604;BME280;7902;49.042;9.092;2022-11-12T07:41:12;100695.00;;;7.90;69.17
15604;BME280;7902;49.042;9.092;2022-11-12T07:43:40;100687.06;;;7.92;69.14
15604;BME280;7902;49.042;9.092;2022-11-12T07:46:10;100682.44;;;8.00;69.27
15604;BME280;7902;49.042;9.092;2022-11-12T07:48:37;100673.22;;;7.90;69.64
15604;BME280;7902;49.042;9.092;2022-11-12T07:51:08;100680.13;;;7.91;70.01
15604;BME280;7902;49.042;9.092;2022-11-12T07:53:36;100686.88;;;7.98;70.27
15604;BME280;7902;49.042;9.092;2022-11-12T07:56:02;100685.56;;;8.10;69.61
15604;BME280;7902;49.042;9.092;2022-11-12T07:58:31;100683.97;;;8.06;70.11
15604;BME280;7902;49.042;9.092;2022-11-12T08:00:57;100681.00;;;8.15;70.14
15604;BME280;7902;49.042;9.092;2022-11-12T08:03:23;100680.59;;;8.25;69.50
15604;BME280;7902;49.042;9.092;2022-11-12T08:05:49;100679.66;;;8.05;70.17
15604;BME280;7902;49.042;9.092;2022-11-12T08:08:15;100670.47;;;8.16;70.37
15604;BME280;7902;49.042;9.092;2022-11-12T08:10:41;100681.88;;;8.38;69.50
15604;BME280;7902;49.042;9.092;2022-11-12T08:13:07;100680.97;;;8.40;69.73
15604;BME280;7902;49.042;9.092;2022-11-12T08:15:33;100673.06;;;8.41;69.95
15604;BME280;7902;49.042;9.092;2022-11-12T08:17:59;100665.38;;;8.36;70.49
15604;BME280;7902;49.042;9.092;2022-11-12T08:20:24;100670.25;;;8.46;69.79
15604;BME280;7902;49.042;9.092;2022-11-12T08:22:51;100671.72;;;8.53;69.80
15604;BME280;7902;49.042;9.092;2022-11-12T08:25:17;100671.72;;;8.53;70.06
15604;BME280;7902;49.042;9.092;2022-11-12T08:27:43;100686.16;;;8.63;70.16
15604;BME280;7902;49.042;9.092;2022-11-12T08:30:10;100673.47;;;8.52;70.81
15604;BME280;7902;49.042;9.092;2022-11-12T08:32:36;100679.22;;;8.62;71.40
15604;BME280;7902;49.042;9.092;2022-11-12T08:35:02;100677.16;;;8.70;71.06
15604;BME280;7902;49.042;9.092;2022-11-12T08:37:27;100677.69;;;8.78;70.24
15604;BME280;7902;49.042;9.092;2022-11-12T08:39:53;100675.81;;;8.81;71.16
15604;BME280;7902;49.042;9.092;2022-11-12T08:42:19;100681.28;;;8.97;71.09
15604;BME280;7902;49.042;9.092;2022-11-12T08:44:45;100680.69;;;8.69;71.82
15604;BME280;7902;49.042;9.092;2022-11-12T08:47:11;100680.28;;;9.00;71.07
15604;BME280;7902;49.042;9.092;2022-11-12T08:49:37;100680.19;;;9.03;70.98
15604;BME280;7902;49.042;9.092;2022-11-12T08:52:03;100678.22;;;9.08;70.72
15604;BME280;7902;49.042;9.092;2022-11-12T08:54:29;100673.66;;;9.13;70.46
15604;BME280;7902;49.042;9.092;2022-11-12T08:56:55;100675.16;;;9.18;70.12
15604;BME280;7902;49.042;9.092;2022-11-12T08:59:21;100676.75;;;9.22;69.66
15604;BME280;7902;49.042;9.092;2022-11-12T09:01:46;100670.31;;;9.30;70.41
15604;BME280;7902;49.042;9.092;2022-11-12T09:04:12;100666.13;;;9.25;71.54
15604;BME280;7902;49.042;9.092;2022-11-12T09:06:38;100661.34;;;9.35;70.85
15604;BME280;7902;49.042;9.092;2022-11-12T09:09:04;100664.16;;;9.31;71.14
15604;BME280;7902;49.042;9.092;2022-11-12T09:11:30;100667.56;;;9.33;72.27
15604;BME280;7902;49.042;9.092;2022-11-12T09:13:56;100660.53;;;9.33;71.90
15604;BME280;7902;49.042;9.092;2022-11-12T09:16:22;100661.91;;;9.42;71.27
15604;BME280;7902;49.042;9.092;2022-11-12T09:18:48;100656.88;;;9.37;72.11
15604;BME280;7902;49.042;9.092;2022-11-12T09:21:14;100652.28;;;9.42;71.33
15604;BME280;7902;49.042;9.092;2022-11-12T09:23:40;100656.34;;;9.29;72.21
15604;BME280;7902;49.042;9.092;2022-11-12T09:26:06;100649.59;;;9.44;71.71
15604;BME280;7902;49.042;9.092;2022-11-12T09:28:32;100651.31;;;9.45;73.28
15604;BME280;7902;49.042;9.092;2022-11-12T09:30:58;100651.69;;;9.56;71.38
15604;BME280;7902;49.042;9.092;2022-11-12T09:33:26;100651.97;;;9.50;72.38
15604;BME280;7902;49.042;9.092;2022-11-12T09:35:54;100654.19;;;9.59;72.68
15604;BME280;7902;49.042;9.092;2022-11-12T09:38:20;100659.69;;;9.33;73.60
15604;BME280;7902;49.042;9.092;2022-11-12T09:43:59;100643.84;;;9.75;72.26
15604;BME280;7902;49.042;9.092;2022-11-12T09:46:44;100658.22;;;9.86;72.69
15604;BME280;7902;49.042;9.092;2022-11-12T09:49:19;100662.09;;;9.78;72.23
15604;BME280;7902;49.042;9.092;2022-11-12T09:51:49;100653.22;;;9.80;72.68
15604;BME280;7902;49.042;9.092;2022-11-12T09:56:46;100649.66;;;10.01;72.17
15604;BME280;7902;49.042;9.092;2022-11-12T09:59:12;100660.41;;;9.95;72.00
15604;BME280;7902;49.042;9.092;2022-11-12T10:02:01;100657.66;;;9.98;70.67
15604;BME280;7902;49.042;9.092;2022-11-12T10:07:48;100648.66;;;10.04;72.16
15604;BME280;7902;49.042;9.092;2022-11-12T10:10:27;100652.97;;;10.05;72.10
15604;BME280;7902;49.042;9.092;2022-11-12T10:16:05;100650.41;;;10.03;73.02
15604;BME280;7902;49.042;9.092;2022-11-12T10:24:41;100643.97;;;10.10;74.61
15604;BME280;7902;49.042;9.092;2022-11-12T10:27:18;100648.34;;;10.30;71.49
15604;BME280;7902;49.042;9.092;2022-11-12T10:30:04;100649.19;;;10.31;70.94
15604;BME280;7902;49.042;9.092;2022-11-12T10:32:30;100641.16;;;10.34;70.38
15604;BME280;7902;49.042;9.092;2022-11-12T10:34:56;100643.63;;;10.37;71.10
15604;BME280;7902;49.042;9.092;2022-11-12T10:40:26;100643.28;;;10.44;72.46
15604;BME280;7902;49.042;9.092;2022-11-12T10:43:01;100634.41;;;10.47;68.48
15604;BME280;7902;49.042;9.092;2022-11-12T10:45:28;100633.72;;;10.43;72.08
15604;BME280;7902;49.042;9.092;2022-11-12T10:47:54;100635.94;;;10.70;69.55
15604;BME280;7902;49.042;9.092;2022-11-12T10:50:33;100633.22;;;10.71;69.43
15604;BME280;7902;49.042;9.092;2022-11-12T10:53:03;100626.91;;;10.75;69.33
15604;BME280;7902;49.042;9.092;2022-11-12T10:55:31;100633.16;;;10.73;69.84
15604;BME280;7902;49.042;9.092;2022-11-12T11:00:37;100625.38;;;10.88;69.47
15604;BME280;7902;49.042;9.092;2022-11-12T11:04:04;100629.69;;;10.89;69.83
15604;BME280;7902;49.042;9.092;2022-11-12T11:08:45;100624.84;;;10.82;68.29
15604;BME280;7902;49.042;9.092;2022-11-12T11:13:51;100619.72;;;10.79;67.82
15604;BME280;7902;49.042;9.092;2022-11-12T11:19:07;100625.91;;;10.95;68.48
15604;BME280;7902;49.042;9.092;2022-11-12T11:24:24;100613.16;;;11.05;69.75
15604;BME280;7902;49.042;9.092;2022-11-12T11:27:11;100615.41;;;11.12;68.33
15604;BME280;7902;49.042;9.092;2022-11-12T11:38:05;100606.53;;;11.15;67.55
15604;BME280;7902;49.042;9.092;2022-11-12T11:46:45;100594.31;;;11.14;67.85
15604;BME280;7902;49.042;9.092;2022-11-12T11:49:35;100603.09;;;11.13;67.87
15604;BME280;7902;49.042;9.092;2022-11-12T11:55:16;100586.88;;;11.22;67.70
15604;BME280;7902;49.042;9.092;2022-11-12T12:17:46;100565.44;;;11.29;66.69
15604;BME280;7902;49.042;9.092;2022-11-12T12:20:26;100557.59;;;11.45;68.61
15604;BME280;7902;49.042;9.092;2022-11-12T12:23:24;100564.22;;;11.52;67.86
15604;BME280;7902;49.042;9.092;2022-11-12T12:25:53;100558.28;;;11.49;68.48
15604;BME280;7902;49.042;9.092;2022-11-12T12:28:39;100565.56;;;11.43;66.32
15604;BME280;7902;49.042;9.092;2022-11-12T12:31:13;100559.28;;;11.46;67.10
15604;BME280;7902;49.042;9.092;2022-11-12T12:33:48;100557.44;;;11.48;66.45
15604;BME280;7902;49.042;9.092;2022-11-12T12:36:30;100547.91;;;11.45;67.09
15604;BME280;7902;49.042;9.092;2022-11-12T12:39:08;100548.53;;;11.51;66.90
15604;BME280;7902;49.042;9.092;2022-11-12T12:42:04;100551.72;;;11.40;66.90
15604;BME280;7902;49.042;9.092;2022-11-12T12:44:42;100544.59;;;11.42;66.87
15604;BME280;7902;49.042;9.092;2022-11-12T12:47:33;100544.59;;;11.42;67.14
15604;BME280;7902;49.042;9.092;2022-11-12T12:50:06;100539.72;;;11.52;66.57
15604;BME280;7902;49.042;9.092;2022-11-12T12:53:02;100532.38;;;11.41;66.34
15604;BME280;7902;49.042;9.092;2022-11-12T12:55:34;100533.34;;;11.56;67.22
15604;BME280;7902;49.042;9.092;2022-11-12T12:58:00;100526.38;;;11.55;66.91
15604;BME280;7902;49.042;9.092;2022-11-12T13:02:56;100529.25;;;11.50;66.78
15604;BME280;7902;49.042;9.092;2022-11-12T13:05:45;100524.47;;;11.58;66.45
15604;BME280;7902;49.042;9.092;2022-11-12T13:08:18;100519.69;;;11.65;66.94
15604;BME280;7902;49.042;9.092;2022-11-12T13:10:48;100522.31;;;11.65;66.33
15604;BME280;7902;49.042;9.092;2022-11-12T13:15:46;100513.56;;;11.64;66.74
15604;BME280;7902;49.042;9.092;2022-11-12T13:21:10;100496.59;;;11.70;65.91
15604;BME280;7902;49.042;9.092;2022-11-12T13:26:55;100497.47;;;11.70;66.10
15604;BME280;7902;49.042;9.092;2022-11-12T13:43:08;100488.56;;;11.73;66.25
15604;BME280;7902;49.042;9.092;2022-11-12T13:45:46;100490.28;;;11.74;66.24
15604;BME280;7902;49.042;9.092;2022-11-12T13:48:32;100490.69;;;11.82;65.90
15604;BME280;7902;49.042;9.092;2022-11-12T13:51:02;100489.88;;;11.81;66.39
15604;BME280;7902;49.042;9.092;2022-11-12T13:53:31;100488.50;;;11.74;66.19
15604;BME280;7902;49.042;9.092;2022-11-12T13:55:58;100492.66;;;11.78;66.47
15604;BME280;7902;49.042;9.092;2022-11-12T14:00:56;100485.88;;;11.90;65.92
15604;BME280;7902;49.042;9.092;2022-11-12T14:03:27;100484.44;;;11.84;66.21
15604;BME280;7902;49.042;9.092;2022-11-12T14:05:54;100492.31;;;11.84;66.13
15604;BME280;7902;49.042;9.092;2022-11-12T14:08:26;100491.22;;;11.88;66.54
15604;BME280;7902;49.042;9.092;2022-11-12T14:13:55;100485.94;;;11.88;66.43
15604;BME280;7902;49.042;9.092;2022-11-12T14:16:37;100484.09;;;11.91;65.94
15604;BME280;7902;49.042;9.092;2022-11-12T14:19:20;100490.63;;;11.99;66.04
15604;BME280;7902;49.042;9.092;2022-11-12T14:22:13;100486.72;;;11.91;66.16
15604;BME280;7902;49.042;9.092;2022-11-12T14:24:40;100478.56;;;11.95;66.20
15604;BME280;7902;49.042;9.092;2022-11-12T14:32:40;100472.94;;;12.01;65.64
15604;BME280;7902;49.042;9.092;2022-11-12T14:35:29;100470.56;;;11.97;66.30
15604;BME280;7902;49.042;9.092;2022-11-12T14:38:08;100473.78;;;12.02;66.22
15604;BME280;7902;49.042;9.092;2022-11-12T14:41:00;100466.00;;;12.00;65.98
15604;BME280;7902;49.042;9.092;2022-11-12T14:45:53;100463.94;;;12.05;66.14
15604;BME280;7902;49.042;9.092;2022-11-12T14:48:20;100455.94;;;12.07;65.84
15604;BME280;7902;49.042;9.092;2022-11-12T14:50:47;100456.28;;;12.01;65.65
15604;BME280;7902;49.042;9.092;2022-11-12T14:53:22;100446.44;;;12.04;66.15
15604;BME280;7902;49.042;9.092;2022-11-12T14:55:52;100450.09;;;12.02;65.59
15604;BME280;7902;49.042;9.092;2022-11-12T14:58:19;100447.13;;;12.08;66.06
15604;BME280;7902;49.042;9.092;2022-11-12T15:00:48;100445.25;;;12.10;66.36
15604;BME280;7902;49.042;9.092;2022-11-12T15:03:19;100449.56;;;12.11;65.90
15604;BME280;7902;49.042;9.092;2022-11-12T15:05:56;100461.06;;;12.10;65.95
15604;BME280;7902;49.042;9.092;2022-11-12T15:08:34;100446.94;;;12.11;66.46
15604;BME280;7902;49.042;9.092;2022-11-12T15:11:29;100444.31;;;12.11;66.08
15604;BME280;7902;49.042;9.092;2022-11-12T15:13:58;100442.19;;;12.17;66.13
15604;BME280;7902;49.042;9.092;2022-11-12T15:16:29;100450.00;;;12.19;66.17